sensor_id;sensor_type;location;lat;lon;timestamp;P1;durP1;ratioP1;P2;durP2;ratioP2
4744;SDS011;2386;42.138;24.746;2023-01-10T00:00:26;84.87;;;33.37;;
4744;SDS011;2386;42.138;24.746;2023-01-10T00:02:58;76.80;;;31.27;;
4744;SDS011;2386;42.138;24.746;2023-01-10T00:05:23;73.27;;;32.40;;
4744;SDS011;2386;42.138;24.746;2023-01-10T00:07:49;84.17;;;32.30;;
4744;SDS011;2386;42.138;24.746;2023-01-10T00:10:14;78.43;;;31.23;;
4744;SDS011;2386;42.138;24.746;2023-01-10T00:12:40;88.70;;;32.97;;
4744;SDS011;2386;42.138;24.746;2023-01-10T00:15:23;79.97;;;32.10;;
4744;SDS011;2386;42.138;24.746;2023-01-10T00:17:49;86.97;;;36.10;;
4744;SDS011;2386;42.138;24.746;2023-01-10T00:20:14;80.47;;;34.40;;
4744;SDS011;2386;42.138;24.746;2023-01-10T00:22:40;76.57;;;32.67;;
4744;SDS011;2386;42.138;24.746;2023-01-10T00:25:06;81.30;;;34.10;;
4744;SDS011;2386;42.138;24.746;2023-01-10T00:27:31;76.90;;;31.40;;
4744;SDS011;2386;42.138;24.746;2023-01-10T00:29:57;80.20;;;31.47;;
4744;SDS011;2386;42.138;24.746;2023-01-10T00:32:25;76.03;;;32.07;;
4744;SDS011;2386;42.138;24.746;2023-01-10T00:34:51;90.27;;;34.63;;
4744;SDS011;2386;42.138;24.746;2023-01-10T00:37:16;90.07;;;34.50;;
4744;SDS011;2386;42.138;24.746;2023-01-10T00:39:42;89.90;;;34.27;;
4744;SDS011;2386;42.138;24.746;2023-01-10T00:42:08;96.10;;;36.03;;
4744;SDS011;2386;42.138;24.746;2023-01-10T00:44:53;90.40;;;32.10;;
4744;SDS011;2386;42.138;24.746;2023-01-10T00:47:19;79.33;;;33.33;;
4744;SDS011;2386;42.138;24.746;2023-01-10T00:49:44;73.20;;;33.00;;
4744;SDS011;2386;42.138;24.746;2023-01-10T00:52:10;84.10;;;33.63;;
4744;SDS011;2386;42.138;24.746;2023-01-10T00:54:36;88.97;;;33.60;;
4744;SDS011;2386;42.138;24.746;2023-01-10T00:57:01;73.87;;;31.20;;
4744;SDS011;2386;42.138;24.746;2023-01-10T00:59:27;84.00;;;33.40;;
4744;SDS011;2386;42.138;24.746;2023-01-10T01:01:53;78.50;;;32.73;;
4744;SDS011;2386;42.138;24.746;2023-01-10T01:04:19;94.03;;;35.00;;
4744;SDS011;2386;42.138;24.746;2023-01-10T01:06:45;74.67;;;32.40;;
4744;SDS011;2386;42.138;24.746;2023-01-10T01:09:13;66.13;;;31.37;;
4744;SDS011;2386;42.138;24.746;2023-01-10T01:11:39;81.23;;;34.63;;
4744;SDS011;2386;42.138;24.746;2023-01-10T01:14:05;81.23;;;33.53;;
4744;SDS011;2386;42.138;24.746;2023-01-10T01:16:30;75.83;;;32.83;;
4744;SDS011;2386;42.138;24.746;2023-01-10T01:18:56;82.33;;;32.00;;
4744;SDS011;2386;42.138;24.746;2023-01-10T01:21:22;76.17;;;34.77;;
4744;SDS011;2386;42.138;24.746;2023-01-10T01:23:52;85.07;;;34.40;;
4744;SDS011;2386;42.138;24.746;2023-01-10T01:26:21;79.50;;;32.50;;
4744;SDS011;2386;42.138;24.746;2023-01-10T01:28:47;79.70;;;33.40;;
4744;SDS011;2386;42.138;24.746;2023-01-10T01:31:13;97.57;;;35.03;;
4744;SDS011;2386;42.138;24.746;2023-01-10T01:33:38;77.27;;;31.53;;
4744;SDS011;2386;42.138;24.746;2023-01-10T01:36:07;77.50;;;33.83;;
4744;SDS011;2386;42.138;24.746;2023-01-10T01:38:36;84.93;;;33.77;;
4744;SDS011;2386;42.138;24.746;2023-01-10T01:41:03;93.50;;;34.70;;
4744;SDS011;2386;42.138;24.746;2023-01-10T01:46:23;75.77;;;33.10;;
4744;SDS011;2386;42.138;24.746;2023-01-10T01:48:49;88.33;;;32.17;;
4744;SDS011;2386;42.138;24.746;2023-01-10T01:51:24;88.30;;;32.00;;
4744;SDS011;2386;42.138;24.746;2023-01-10T01:53:54;80.40;;;33.00;;
4744;SDS011;2386;42.138;24.746;2023-01-10T01:56:25;78.83;;;33.27;;
4744;SDS011;2386;42.138;24.746;2023-01-10T01:58:54;78.53;;;34.37;;
4744;SDS011;2386;42.138;24.746;2023-01-10T02:01:45;86.30;;;32.70;;
4744;SDS011;2386;42.138;24.746;2023-01-10T02:04:16;77.63;;;32.20;;
4744;SDS011;2386;42.138;24.746;2023-01-10T02:06:46;83.90;;;34.17;;
4744;SDS011;2386;42.138;24.746;2023-01-10T02:11:47;79.40;;;34.27;;
4744;SDS011;2386;42.138;24.746;2023-01-10T02:14:13;80.03;;;36.40;;
4744;SDS011;2386;42.138;24.746;2023-01-10T02:16:39;90.00;;;36.67;;
4744;SDS011;2386;42.138;24.746;2023-01-10T02:19:06;86.10;;;36.40;;
4744;SDS011;2386;42.138;24.746;2023-01-10T02:21:47;90.27;;;36.50;;
4744;SDS011;2386;42.138;24.746;2023-01-10T02:27:43;84.40;;;39.10;;
4744;SDS011;2386;42.138;24.746;2023-01-10T02:41:58;78.40;;;35.37;;
4744;SDS011;2386;42.138;24.746;2023-01-10T02:44:42;90.17;;;36.00;;
4744;SDS011;2386;42.138;24.746;2023-01-10T02:47:14;90.30;;;36.30;;
4744;SDS011;2386;42.138;24.746;2023-01-10T02:49:44;93.30;;;35.57;;
4744;SDS011;2386;42.138;24.746;2023-01-10T02:52:11;90.40;;;33.57;;
4744;SDS011;2386;42.138;24.746;2023-01-10T02:54:41;97.47;;;36.47;;
4744;SDS011;2386;42.138;24.746;2023-01-10T03:00:06;96.53;;;38.10;;
4744;SDS011;2386;42.138;24.746;2023-01-10T03:05:57;107.67;;;36.70;;
4744;SDS011;2386;42.138;24.746;2023-01-10T03:09:20;79.57;;;35.17;;
4744;SDS011;2386;42.138;24.746;2023-01-10T03:11:24;83.53;;;34.90;;
4744;SDS011;2386;42.138;24.746;2023-01-10T03:14:22;86.23;;;37.00;;
4744;SDS011;2386;42.138;24.746;2023-01-10T03:16:57;85.60;;;36.20;;
4744;SDS011;2386;42.138;24.746;2023-01-10T03:19:28;90.17;;;36.70;;
4744;SDS011;2386;42.138;24.746;2023-01-10T03:21:58;100.07;;;37.60;;
4744;SDS011;2386;42.138;24.746;2023-01-10T03:24:31;133.67;;;40.57;;
4744;SDS011;2386;42.138;24.746;2023-01-10T03:27:02;103.80;;;39.17;;
4744;SDS011;2386;42.138;24.746;2023-01-10T03:29:33;100.70;;;38.63;;
4744;SDS011;2386;42.138;24.746;2023-01-10T03:32:09;102.53;;;39.23;;
4744;SDS011;2386;42.138;24.746;2023-01-10T03:34:39;116.23;;;38.10;;
4744;SDS011;2386;42.138;24.746;2023-01-10T03:37:53;124.40;;;40.47;;
4744;SDS011;2386;42.138;24.746;2023-01-10T03:40:32;103.20;;;38.03;;
4744;SDS011;2386;42.138;24.746;2023-01-10T03:43:05;100.97;;;39.37;;
4744;SDS011;2386;42.138;24.746;2023-01-10T03:45:57;107.47;;;38.67;;
4744;SDS011;2386;42.138;24.746;2023-01-10T03:48:26;102.43;;;38.97;;
4744;SDS011;2386;42.138;24.746;2023-01-10T03:50:55;114.43;;;38.67;;
4744;SDS011;2386;42.138;24.746;2023-01-10T03:53:24;96.97;;;39.00;;
4744;SDS011;2386;42.138;24.746;2023-01-10T03:55:49;115.77;;;39.30;;
4744;SDS011;2386;42.138;24.746;2023-01-10T03:58:15;106.97;;;40.20;;
4744;SDS011;2386;42.138;24.746;2023-01-10T04:00:43;103.07;;;37.33;;
4744;SDS011;2386;42.138;24.746;2023-01-10T04:03:08;98.60;;;37.53;;
4744;SDS011;2386;42.138;24.746;2023-01-10T04:05:35;102.20;;;37.80;;
4744;SDS011;2386;42.138;24.746;2023-01-10T04:08:00;106.47;;;38.20;;
4744;SDS011;2386;42.138;24.746;2023-01-10T04:10:25;111.33;;;36.53;;
4744;SDS011;2386;42.138;24.746;2023-01-10T04:12:53;95.27;;;35.10;;
4744;SDS011;2386;42.138;24.746;2023-01-10T04:15:18;85.97;;;34.60;;
4744;SDS011;2386;42.138;24.746;2023-01-10T04:17:44;85.40;;;36.47;;
4744;SDS011;2386;42.138;24.746;2023-01-10T04:20:09;95.87;;;37.00;;
4744;SDS011;2386;42.138;24.746;2023-01-10T04:22:35;109.37;;;37.77;;
4744;SDS011;2386;42.138;24.746;2023-01-10T04:25:00;104.30;;;39.40;;
4744;SDS011;2386;42.138;24.746;2023-01-10T04:27:26;101.10;;;38.87;;
4744;SDS011;2386;42.138;24.746;2023-01-10T04:29:52;101.07;;;39.90;;
4744;SDS011;2386;42.138;24.746;2023-01-10T04:32:18;98.30;;;38.70;;
4744;SDS011;2386;42.138;24.746;2023-01-10T04:34:43;103.90;;;39.13;;
4744;SDS011;2386;42.138;24.746;2023-01-10T04:37:08;96.67;;;37.57;;
4744;SDS011;2386;42.138;24.746;2023-01-10T04:39:34;81.83;;;37.10;;
4744;SDS011;2386;42.138;24.746;2023-01-10T04:41:59;94.30;;;36.00;;
4744;SDS011;2386;42.138;24.746;2023-01-10T04:44:25;83.07;;;35.60;;
4744;SDS011;2386;42.138;24.746;2023-01-10T04:46:50;95.70;;;36.47;;
4744;SDS011;2386;42.138;24.746;2023-01-10T04:49:15;84.67;;;36.47;;
4744;SDS011;2386;42.138;24.746;2023-01-10T04:51:41;113.23;;;42.50;;
4744;SDS011;2386;42.138;24.746;2023-01-10T04:54:06;109.33;;;38.83;;
4744;SDS011;2386;42.138;24.746;2023-01-10T04:56:32;108.03;;;39.17;;
4744;SDS011;2386;42.138;24.746;2023-01-10T04:58:59;98.80;;;39.10;;
4744;SDS011;2386;42.138;24.746;2023-01-10T05:01:24;100.77;;;40.00;;
4744;SDS011;2386;42.138;24.746;2023-01-10T05:03:51;107.50;;;40.10;;
4744;SDS011;2386;42.138;24.746;2023-01-10T05:06:18;101.23;;;42.13;;
4744;SDS011;2386;42.138;24.746;2023-01-10T05:08:44;104.33;;;40.37;;
4744;SDS011;2386;42.138;24.746;2023-01-10T05:11:10;115.57;;;40.07;;
4744;SDS011;2386;42.138;24.746;2023-01-10T05:13:36;105.73;;;38.47;;
4744;SDS011;2386;42.138;24.746;2023-01-10T05:16:02;92.17;;;40.30;;
4744;SDS011;2386;42.138;24.746;2023-01-10T05:18:28;107.53;;;41.27;;
4744;SDS011;2386;42.138;24.746;2023-01-10T05:21:03;116.80;;;42.47;;
4744;SDS011;2386;42.138;24.746;2023-01-10T05:23:30;103.00;;;43.73;;
4744;SDS011;2386;42.138;24.746;2023-01-10T05:25:56;119.33;;;41.80;;
4744;SDS011;2386;42.138;24.746;2023-01-10T05:28:21;107.60;;;41.57;;
4744;SDS011;2386;42.138;24.746;2023-01-10T05:30:47;117.07;;;41.03;;
4744;SDS011;2386;42.138;24.746;2023-01-10T05:33:13;109.33;;;42.73;;
4744;SDS011;2386;42.138;24.746;2023-01-10T05:35:39;110.30;;;42.67;;
4744;SDS011;2386;42.138;24.746;2023-01-10T05:38:07;103.23;;;42.37;;
4744;SDS011;2386;42.138;24.746;2023-01-10T05:40:34;129.03;;;41.87;;
4744;SDS011;2386;42.138;24.746;2023-01-10T05:42:59;104.83;;;41.17;;
4744;SDS011;2386;42.138;24.746;2023-01-10T05:45:24;125.83;;;43.60;;
4744;SDS011;2386;42.138;24.746;2023-01-10T05:47:50;103.60;;;39.27;;
4744;SDS011;2386;42.138;24.746;2023-01-10T05:50:15;104.80;;;40.83;;
4744;SDS011;2386;42.138;24.746;2023-01-10T05:52:41;121.40;;;41.77;;
4744;SDS011;2386;42.138;24.746;2023-01-10T05:55:07;107.47;;;43.17;;
4744;SDS011;2386;42.138;24.746;2023-01-10T05:57:32;121.60;;;48.53;;
4744;SDS011;2386;42.138;24.746;2023-01-10T05:59:57;127.47;;;44.60;;
4744;SDS011;2386;42.138;24.746;2023-01-10T06:02:23;107.13;;;42.23;;
4744;SDS011;2386;42.138;24.746;2023-01-10T06:04:50;118.23;;;43.10;;
4744;SDS011;2386;42.138;24.746;2023-01-10T06:07:16;120.50;;;41.27;;
4744;SDS011;2386;42.138;24.746;2023-01-10T06:09:42;117.03;;;42.90;;
4744;SDS011;2386;42.138;24.746;2023-01-10T06:12:07;100.83;;;41.00;;
4744;SDS011;2386;42.138;24.746;2023-01-10T06:14:32;116.47;;;41.87;;
4744;SDS011;2386;42.138;24.746;2023-01-10T06:16:58;112.37;;;39.73;;
4744;SDS011;2386;42.138;24.746;2023-01-10T06:19:23;126.50;;;43.00;;
4744;SDS011;2386;42.138;24.746;2023-01-10T06:21:48;140.57;;;43.80;;
4744;SDS011;2386;42.138;24.746;2023-01-10T06:24:14;118.33;;;43.67;;
4744;SDS011;2386;42.138;24.746;2023-01-10T06:26:39;123.93;;;42.83;;
4744;SDS011;2386;42.138;24.746;2023-01-10T06:29:04;134.43;;;42.80;;
4744;SDS011;2386;42.138;24.746;2023-01-10T06:31:30;121.80;;;41.60;;
4744;SDS011;2386;42.138;24.746;2023-01-10T06:33:55;133.20;;;44.23;;
4744;SDS011;2386;42.138;24.746;2023-01-10T06:36:21;130.37;;;45.40;;
4744;SDS011;2386;42.138;24.746;2023-01-10T06:38:46;132.67;;;43.70;;
4744;SDS011;2386;42.138;24.746;2023-01-10T06:41:11;139.47;;;46.30;;
4744;SDS011;2386;42.138;24.746;2023-01-10T06:43:40;152.80;;;45.53;;
4744;SDS011;2386;42.138;24.746;2023-01-10T06:46:10;144.83;;;46.03;;
4744;SDS011;2386;42.138;24.746;2023-01-10T06:48:41;149.27;;;45.67;;
4744;SDS011;2386;42.138;24.746;2023-01-10T06:51:10;151.37;;;47.47;;
4744;SDS011;2386;42.138;24.746;2023-01-10T06:53:37;159.57;;;46.40;;
4744;SDS011;2386;42.138;24.746;2023-01-10T06:56:03;146.03;;;44.80;;
4744;SDS011;2386;42.138;24.746;2023-01-10T07:00:58;136.20;;;44.50;;
4744;SDS011;2386;42.138;24.746;2023-01-10T07:03:24;140.63;;;50.20;;
4744;SDS011;2386;42.138;24.746;2023-01-10T07:05:49;142.90;;;49.67;;
4744;SDS011;2386;42.138;24.746;2023-01-10T07:08:15;143.90;;;45.10;;
4744;SDS011;2386;42.138;24.746;2023-01-10T07:10:41;133.20;;;44.43;;
4744;SDS011;2386;42.138;24.746;2023-01-10T07:13:07;148.37;;;46.57;;
4744;SDS011;2386;42.138;24.746;2023-01-10T07:15:33;140.40;;;47.07;;
4744;SDS011;2386;42.138;24.746;2023-01-10T07:17:58;152.80;;;47.60;;
4744;SDS011;2386;42.138;24.746;2023-01-10T07:20:24;176.97;;;50.47;;
4744;SDS011;2386;42.138;24.746;2023-01-10T07:22:57;159.07;;;47.70;;
4744;SDS011;2386;42.138;24.746;2023-01-10T07:25:24;173.63;;;49.50;;
4744;SDS011;2386;42.138;24.746;2023-01-10T07:27:51;167.57;;;49.20;;
4744;SDS011;2386;42.138;24.746;2023-01-10T07:30:19;183.77;;;54.73;;
4744;SDS011;2386;42.138;24.746;2023-01-10T07:32:45;177.33;;;48.00;;
4744;SDS011;2386;42.138;24.746;2023-01-10T07:35:17;169.63;;;48.37;;
4744;SDS011;2386;42.138;24.746;2023-01-10T07:37:42;191.27;;;51.20;;
4744;SDS011;2386;42.138;24.746;2023-01-10T07:40:08;165.20;;;46.97;;
4744;SDS011;2386;42.138;24.746;2023-01-10T07:42:34;186.53;;;49.40;;
4744;SDS011;2386;42.138;24.746;2023-01-10T07:44:59;156.30;;;46.73;;
4744;SDS011;2386;42.138;24.746;2023-01-10T07:47:25;150.67;;;45.10;;
4744;SDS011;2386;42.138;24.746;2023-01-10T07:49:53;150.27;;;46.17;;
4744;SDS011;2386;42.138;24.746;2023-01-10T07:52:19;155.90;;;47.43;;
4744;SDS011;2386;42.138;24.746;2023-01-10T07:54:44;161.13;;;45.57;;
4744;SDS011;2386;42.138;24.746;2023-01-10T07:57:10;164.70;;;49.27;;
4744;SDS011;2386;42.138;24.746;2023-01-10T07:59:36;142.07;;;46.90;;
4744;SDS011;2386;42.138;24.746;2023-01-10T08:02:01;162.33;;;52.93;;
4744;SDS011;2386;42.138;24.746;2023-01-10T08:04:27;166.57;;;48.33;;
4744;SDS011;2386;42.138;24.746;2023-01-10T08:06:53;156.07;;;48.53;;
4744;SDS011;2386;42.138;24.746;2023-01-10T08:09:19;150.30;;;44.70;;
4744;SDS011;2386;42.138;24.746;2023-01-10T08:11:44;168.40;;;48.87;;
4744;SDS011;2386;42.138;24.746;2023-01-10T08:14:09;155.53;;;47.67;;
4744;SDS011;2386;42.138;24.746;2023-01-10T08:16:35;156.13;;;48.10;;
4744;SDS011;2386;42.138;24.746;2023-01-10T08:19:00;153.83;;;46.43;;
4744;SDS011;2386;42.138;24.746;2023-01-10T08:21:26;139.03;;;45.97;;
4744;SDS011;2386;42.138;24.746;2023-01-10T08:23:52;153.80;;;46.77;;
4744;SDS011;2386;42.138;24.746;2023-01-10T08:26:18;141.70;;;45.50;;
4744;SDS011;2386;42.138;24.746;2023-01-10T08:28:44;130.20;;;43.53;;
4744;SDS011;2386;42.138;24.746;2023-01-10T08:31:09;135.40;;;44.00;;
4744;SDS011;2386;42.138;24.746;2023-01-10T08:33:38;138.83;;;45.37;;
4744;SDS011;2386;42.138;24.746;2023-01-10T08:36:04;136.77;;;46.17;;
4744;SDS011;2386;42.138;24.746;2023-01-10T08:38:30;130.27;;;45.87;;
4744;SDS011;2386;42.138;24.746;2023-01-10T08:40:56;131.70;;;43.80;;
4744;SDS011;2386;42.138;24.746;2023-01-10T08:43:22;131.03;;;43.97;;
4744;SDS011;2386;42.138;24.746;2023-01-10T08:45:48;119.13;;;43.30;;
4744;SDS011;2386;42.138;24.746;2023-01-10T08:48:14;125.30;;;40.80;;
4744;SDS011;2386;42.138;24.746;2023-01-10T08:50:40;110.90;;;40.13;;
4744;SDS011;2386;42.138;24.746;2023-01-10T08:53:06;110.93;;;43.17;;
4744;SDS011;2386;42.138;24.746;2023-01-10T08:55:32;111.00;;;38.73;;
4744;SDS011;2386;42.138;24.746;2023-01-10T08:58:01;103.33;;;38.23;;
4744;SDS011;2386;42.138;24.746;2023-01-10T09:00:27;96.17;;;37.87;;
4744;SDS011;2386;42.138;24.746;2023-01-10T09:02:54;88.17;;;34.77;;
4744;SDS011;2386;42.138;24.746;2023-01-10T09:05:20;93.27;;;33.17;;
4744;SDS011;2386;42.138;24.746;2023-01-10T09:07:45;75.97;;;31.07;;
4744;SDS011;2386;42.138;24.746;2023-01-10T09:10:17;85.73;;;30.90;;
4744;SDS011;2386;42.138;24.746;2023-01-10T09:12:42;83.43;;;29.23;;
4744;SDS011;2386;42.138;24.746;2023-01-10T09:15:24;70.97;;;28.60;;
4744;SDS011;2386;42.138;24.746;2023-01-10T09:17:57;74.57;;;30.03;;
4744;SDS011;2386;42.138;24.746;2023-01-10T09:20:25;76.60;;;30.67;;
4744;SDS011;2386;42.138;24.746;2023-01-10T09:22:52;90.83;;;30.37;;
4744;SDS011;2386;42.138;24.746;2023-01-10T09:25:19;87.10;;;30.33;;
4744;SDS011;2386;42.138;24.746;2023-01-10T09:27:45;74.27;;;31.27;;
4744;SDS011;2386;42.138;24.746;2023-01-10T09:30:10;78.00;;;31.17;;
4744;SDS011;2386;42.138;24.746;2023-01-10T09:32:36;77.53;;;29.90;;
4744;SDS011;2386;42.138;24.746;2023-01-10T09:35:02;73.87;;;28.57;;
4744;SDS011;2386;42.138;24.746;2023-01-10T09:37:28;79.27;;;31.93;;
4744;SDS011;2386;42.138;24.746;2023-01-10T09:39:53;73.90;;;31.97;;
4744;SDS011;2386;42.138;24.746;2023-01-10T09:45:11;66.20;;;28.03;;
4744;SDS011;2386;42.138;24.746;2023-01-10T09:48:07;81.17;;;30.50;;
4744;SDS011;2386;42.138;24.746;2023-01-10T09:50:54;83.83;;;33.07;;
4744;SDS011;2386;42.138;24.746;2023-01-10T09:53:35;94.93;;;32.40;;
4744;SDS011;2386;42.138;24.746;2023-01-10T09:56:04;81.50;;;31.50;;
4744;SDS011;2386;42.138;24.746;2023-01-10T09:58:33;91.83;;;33.57;;
4744;SDS011;2386;42.138;24.746;2023-01-10T10:03:41;78.63;;;32.53;;
4744;SDS011;2386;42.138;24.746;2023-01-10T10:06:26;71.63;;;33.00;;
4744;SDS011;2386;42.138;24.746;2023-01-10T10:08:52;75.57;;;31.37;;
4744;SDS011;2386;42.138;24.746;2023-01-10T10:13:53;81.67;;;29.83;;
4744;SDS011;2386;42.138;24.746;2023-01-10T10:16:42;77.67;;;30.73;;
4744;SDS011;2386;42.138;24.746;2023-01-10T10:21:57;82.03;;;32.27;;
4744;SDS011;2386;42.138;24.746;2023-01-10T10:27:56;86.27;;;33.03;;
4744;SDS011;2386;42.138;24.746;2023-01-10T10:36:03;90.43;;;34.37;;
4744;SDS011;2386;42.138;24.746;2023-01-10T10:38:36;87.97;;;36.47;;
4744;SDS011;2386;42.138;24.746;2023-01-10T10:41:09;106.17;;;42.93;;
4744;SDS011;2386;42.138;24.746;2023-01-10T10:43:42;133.50;;;46.60;;
4744;SDS011;2386;42.138;24.746;2023-01-10T10:46:12;103.93;;;36.23;;
4744;SDS011;2386;42.138;24.746;2023-01-10T10:51:24;95.93;;;36.60;;
4744;SDS011;2386;42.138;24.746;2023-01-10T10:53:53;97.13;;;34.87;;
4744;SDS011;2386;42.138;24.746;2023-01-10T10:56:21;110.60;;;37.90;;
4744;SDS011;2386;42.138;24.746;2023-01-10T10:58:50;100.13;;;37.53;;
4744;SDS011;2386;42.138;24.746;2023-01-10T11:01:19;81.63;;;35.40;;
4744;SDS011;2386;42.138;24.746;2023-01-10T11:06:40;102.80;;;36.90;;
4744;SDS011;2386;42.138;24.746;2023-01-10T11:09:17;101.17;;;37.50;;
4744;SDS011;2386;42.138;24.746;2023-01-10T11:12:04;102.50;;;37.53;;
4744;SDS011;2386;42.138;24.746;2023-01-10T11:14:45;107.40;;;37.90;;
4744;SDS011;2386;42.138;24.746;2023-01-10T11:17:19;108.47;;;39.73;;
4744;SDS011;2386;42.138;24.746;2023-01-10T11:22:47;112.40;;;39.20;;
4744;SDS011;2386;42.138;24.746;2023-01-10T11:25:17;119.90;;;42.80;;
4744;SDS011;2386;42.138;24.746;2023-01-10T11:27:49;126.13;;;42.67;;
4744;SDS011;2386;42.138;24.746;2023-01-10T11:30:31;124.80;;;46.00;;
4744;SDS011;2386;42.138;24.746;2023-01-10T11:33:06;117.57;;;45.50;;
4744;SDS011;2386;42.138;24.746;2023-01-10T11:36:09;112.97;;;43.50;;
4744;SDS011;2386;42.138;24.746;2023-01-10T11:38:57;138.97;;;47.20;;
4744;SDS011;2386;42.138;24.746;2023-01-10T11:41:25;114.47;;;42.77;;
4744;SDS011;2386;42.138;24.746;2023-01-10T11:44:13;120.83;;;42.93;;
4744;SDS011;2386;42.138;24.746;2023-01-10T11:46:50;124.43;;;44.97;;
4744;SDS011;2386;42.138;24.746;2023-01-10T11:49:24;129.57;;;49.53;;
4744;SDS011;2386;42.138;24.746;2023-01-10T11:51:55;115.53;;;44.80;;
4744;SDS011;2386;42.138;24.746;2023-01-10T11:54:25;132.43;;;44.30;;
4744;SDS011;2386;42.138;24.746;2023-01-10T11:59:53;125.30;;;44.33;;
4744;SDS011;2386;42.138;24.746;2023-01-10T12:02:23;120.17;;;45.10;;
4744;SDS011;2386;42.138;24.746;2023-01-10T12:04:51;115.47;;;44.17;;
4744;SDS011;2386;42.138;24.746;2023-01-10T12:07:19;112.83;;;44.27;;
4744;SDS011;2386;42.138;24.746;2023-01-10T12:09:55;122.33;;;43.27;;
4744;SDS011;2386;42.138;24.746;2023-01-10T12:14:48;113.93;;;40.00;;
4744;SDS011;2386;42.138;24.746;2023-01-10T12:19:55;96.40;;;39.20;;
4744;SDS011;2386;42.138;24.746;2023-01-10T12:22:34;89.87;;;35.40;;
4744;SDS011;2386;42.138;24.746;2023-01-10T12:25:23;109.17;;;36.57;;
4744;SDS011;2386;42.138;24.746;2023-01-10T12:28:01;97.27;;;38.80;;
4744;SDS011;2386;42.138;24.746;2023-01-10T12:30:35;85.73;;;36.60;;
4744;SDS011;2386;42.138;24.746;2023-01-10T12:33:12;88.23;;;35.27;;
4744;SDS011;2386;42.138;24.746;2023-01-10T12:35:48;84.67;;;34.57;;
4744;SDS011;2386;42.138;24.746;2023-01-10T12:38:21;79.80;;;31.90;;
4744;SDS011;2386;42.138;24.746;2023-01-10T12:41:29;73.40;;;31.27;;
4744;SDS011;2386;42.138;24.746;2023-01-10T12:44:31;76.90;;;30.90;;
4744;SDS011;2386;42.138;24.746;2023-01-10T12:50:15;70.50;;;27.90;;
4744;SDS011;2386;42.138;24.746;2023-01-10T12:55:33;64.77;;;29.10;;
4744;SDS011;2386;42.138;24.746;2023-01-10T12:58:16;108.27;;;45.70;;
4744;SDS011;2386;42.138;24.746;2023-01-10T13:00:56;78.10;;;34.33;;
4744;SDS011;2386;42.138;24.746;2023-01-10T13:03:32;71.03;;;29.13;;
4744;SDS011;2386;42.138;24.746;2023-01-10T13:05:59;77.23;;;31.90;;
4744;SDS011;2386;42.138;24.746;2023-01-10T13:08:29;72.70;;;31.80;;
4744;SDS011;2386;42.138;24.746;2023-01-10T13:10:57;83.90;;;32.20;;
4744;SDS011;2386;42.138;24.746;2023-01-10T13:13:35;77.23;;;32.10;;
4744;SDS011;2386;42.138;24.746;2023-01-10T13:16:15;65.10;;;30.03;;
4744;SDS011;2386;42.138;24.746;2023-01-10T13:19:00;59.23;;;29.47;;
4744;SDS011;2386;42.138;24.746;2023-01-10T13:21:35;66.80;;;31.40;;
4744;SDS011;2386;42.138;24.746;2023-01-10T13:24:05;68.57;;;30.23;;
4744;SDS011;2386;42.138;24.746;2023-01-10T13:29:22;64.43;;;29.47;;
4744;SDS011;2386;42.138;24.746;2023-01-10T13:31:49;70.93;;;30.47;;
4744;SDS011;2386;42.138;24.746;2023-01-10T13:34:21;63.70;;;29.80;;
4744;SDS011;2386;42.138;24.746;2023-01-10T13:39:37;59.27;;;27.07;;
4744;SDS011;2386;42.138;24.746;2023-01-10T13:49:59;66.33;;;29.20;;
4744;SDS011;2386;42.138;24.746;2023-01-10T13:52:29;53.57;;;27.10;;
4744;SDS011;2386;42.138;24.746;2023-01-10T13:54:58;61.80;;;28.73;;
4744;SDS011;2386;42.138;24.746;2023-01-10T14:06:02;48.27;;;26.73;;
4744;SDS011;2386;42.138;24.746;2023-01-10T14:08:34;54.67;;;27.93;;
4744;SDS011;2386;42.138;24.746;2023-01-10T14:11:08;57.83;;;29.60;;
4744;SDS011;2386;42.138;24.746;2023-01-10T14:13:35;58.83;;;27.53;;
4744;SDS011;2386;42.138;24.746;2023-01-10T14:16:01;67.10;;;28.40;;
4744;SDS011;2386;42.138;24.746;2023-01-10T14:18:34;57.93;;;28.07;;
4744;SDS011;2386;42.138;24.746;2023-01-10T14:21:09;53.90;;;26.97;;
4744;SDS011;2386;42.138;24.746;2023-01-10T14:23:48;52.00;;;27.20;;
4744;SDS011;2386;42.138;24.746;2023-01-10T14:26:17;68.13;;;31.10;;
4744;SDS011;2386;42.138;24.746;2023-01-10T14:29:07;73.17;;;30.40;;
4744;SDS011;2386;42.138;24.746;2023-01-10T14:31:37;56.23;;;28.50;;
4744;SDS011;2386;42.138;24.746;2023-01-10T14:34:09;59.57;;;27.60;;
4744;SDS011;2386;42.138;24.746;2023-01-10T14:36:49;55.43;;;26.00;;
4744;SDS011;2386;42.138;24.746;2023-01-10T14:39:20;57.07;;;28.60;;
4744;SDS011;2386;42.138;24.746;2023-01-10T14:41:48;57.70;;;28.33;;
4744;SDS011;2386;42.138;24.746;2023-01-10T14:44:17;85.40;;;44.53;;
4744;SDS011;2386;42.138;24.746;2023-01-10T14:46:49;61.20;;;26.20;;
4744;SDS011;2386;42.138;24.746;2023-01-10T14:49:26;74.70;;;37.63;;
4744;SDS011;2386;42.138;24.746;2023-01-10T14:51:54;59.57;;;28.33;;
4744;SDS011;2386;42.138;24.746;2023-01-10T14:54:43;49.90;;;27.90;;
4744;SDS011;2386;42.138;24.746;2023-01-10T14:57:17;49.90;;;25.60;;
4744;SDS011;2386;42.138;24.746;2023-01-10T14:59:45;47.97;;;26.83;;
4744;SDS011;2386;42.138;24.746;2023-01-10T15:02:16;51.50;;;27.40;;
4744;SDS011;2386;42.138;24.746;2023-01-10T15:05:10;51.30;;;24.67;;
4744;SDS011;2386;42.138;24.746;2023-01-10T15:07:42;50.00;;;25.00;;
4744;SDS011;2386;42.138;24.746;2023-01-10T15:10:30;49.50;;;24.03;;
4744;SDS011;2386;42.138;24.746;2023-01-10T15:12:59;49.33;;;25.67;;
4744;SDS011;2386;42.138;24.746;2023-01-10T15:15:36;50.00;;;24.40;;
4744;SDS011;2386;42.138;24.746;2023-01-10T15:18:05;40.73;;;22.00;;
4744;SDS011;2386;42.138;24.746;2023-01-10T15:20:36;41.23;;;24.40;;
4744;SDS011;2386;42.138;24.746;2023-01-10T15:23:03;48.07;;;24.70;;
4744;SDS011;2386;42.138;24.746;2023-01-10T15:27:57;50.27;;;24.30;;
4744;SDS011;2386;42.138;24.746;2023-01-10T15:30:24;44.70;;;24.00;;
4744;SDS011;2386;42.138;24.746;2023-01-10T15:32:52;41.50;;;23.30;;
4744;SDS011;2386;42.138;24.746;2023-01-10T15:35:24;59.17;;;32.40;;
4744;SDS011;2386;42.138;24.746;2023-01-10T15:37:57;45.93;;;24.70;;
4744;SDS011;2386;42.138;24.746;2023-01-10T15:40:29;46.43;;;24.60;;
4744;SDS011;2386;42.138;24.746;2023-01-10T15:45:53;50.47;;;24.60;;
4744;SDS011;2386;42.138;24.746;2023-01-10T15:48:26;41.47;;;22.10;;
4744;SDS011;2386;42.138;24.746;2023-01-10T15:51:13;37.67;;;22.00;;
4744;SDS011;2386;42.138;24.746;2023-01-10T15:57:17;37.50;;;21.63;;
4744;SDS011;2386;42.138;24.746;2023-01-10T15:59:45;42.00;;;21.37;;
4744;SDS011;2386;42.138;24.746;2023-01-10T16:04:45;35.90;;;18.77;;
4744;SDS011;2386;42.138;24.746;2023-01-10T16:07:25;33.70;;;18.40;;
4744;SDS011;2386;42.138;24.746;2023-01-10T16:10:00;25.20;;;16.47;;
4744;SDS011;2386;42.138;24.746;2023-01-10T16:12:44;27.73;;;17.10;;
4744;SDS011;2386;42.138;24.746;2023-01-10T16:15:53;24.50;;;15.47;;
4744;SDS011;2386;42.138;24.746;2023-01-10T16:21:43;24.63;;;15.37;;
4744;SDS011;2386;42.138;24.746;2023-01-10T16:24:18;25.07;;;16.00;;
4744;SDS011;2386;42.138;24.746;2023-01-10T16:26:46;24.90;;;17.00;;
4744;SDS011;2386;42.138;24.746;2023-01-10T16:32:38;29.83;;;17.57;;
4744;SDS011;2386;42.138;24.746;2023-01-10T16:35:03;27.00;;;16.90;;
4744;SDS011;2386;42.138;24.746;2023-01-10T16:37:29;24.50;;;15.90;;